createdAt,value
2018-12-14T00:00:30.295Z,78.29
2018-12-14T00:03:04.736Z,77.97
2018-12-14T00:05:38.657Z,77.83
2018-12-14T00:08:10.276Z,77.76
2018-12-14T00:10:42.148Z,78.19
2018-12-14T00:13:13.789Z,77.99
2018-12-14T00:15:46.475Z,78.40
2018-12-14T00:18:18.612Z,78.64
2018-12-14T00:20:50.633Z,78.48
2018-12-14T00:23:22.383Z,77.67
2018-12-14T00:25:54.232Z,78.19
2018-12-14T00:28:25.990Z,77.85
2018-12-14T00:30:57.905Z,78.57
2018-12-14T00:33:29.954Z,78.37
2018-12-14T00:36:02.081Z,78.90
2018-12-14T00:38:34.181Z,78.19
2018-12-14T00:41:05.950Z,78.15
2018-12-14T00:43:37.995Z,77.69
2018-12-14T00:46:09.719Z,78.43
2018-12-14T00:48:41.974Z,78.17
2018-12-14T00:51:13.661Z,78.29
2018-12-14T00:53:45.605Z,78.57
2018-12-14T00:56:17.423Z,78.34
2018-12-14T00:58:49.737Z,78.66
2018-12-14T01:01:21.606Z,78.63
2018-12-14T01:03:53.330Z,78.50
2018-12-14T01:06:25.033Z,78.37
2018-12-14T01:08:56.866Z,78.61
2018-12-14T01:11:28.738Z,78.37
2018-12-14T01:14:00.611Z,78.97
2018-12-14T01:16:32.825Z,78.64
2018-12-14T01:19:10.756Z,78.76
2018-12-14T01:21:43.950Z,79.16
2018-12-14T01:24:16.110Z,78.46
2018-12-14T01:26:48.340Z,78.07
2018-12-14T01:29:20.046Z,79.62
2018-12-14T01:31:52.076Z,78.43
2018-12-14T01:34:23.790Z,78.76
2018-12-14T01:36:55.501Z,78.46
2018-12-14T01:39:27.315Z,78.53
2018-12-14T01:42:04.617Z,78.28
2018-12-14T01:44:33.037Z,78.56
2018-12-14T01:47:04.793Z,78.97
2018-12-14T01:49:36.979Z,78.21
2018-12-14T01:52:10.058Z,78.12
2018-12-14T01:54:41.919Z,78.58
2018-12-14T01:57:13.891Z,78.79
2018-12-14T01:59:45.608Z,78.35
2018-12-14T02:02:18.689Z,78.57
2018-12-14T02:04:50.262Z,78.86
2018-12-14T02:07:22.074Z,79.01
2018-12-14T02:09:53.744Z,78.52
2018-12-14T02:12:25.396Z,78.60
2018-12-14T02:14:57.062Z,78.38
2018-12-14T02:17:28.974Z,79.08
2018-12-14T02:20:01.520Z,78.09
2018-12-14T02:22:35.464Z,78.57
2018-12-14T02:25:07.566Z,78.62
2018-12-14T02:27:39.114Z,78.60
2018-12-14T02:30:20.377Z,78.13
2018-12-14T02:32:52.330Z,78.81
2018-12-14T02:35:24.168Z,78.24
2018-12-14T02:37:57.004Z,79.45
2018-12-14T02:40:28.977Z,78.72
2018-12-14T02:43:00.810Z,78.02
2018-12-14T02:45:32.456Z,77.56
2018-12-14T02:48:04.233Z,75.38
2018-12-14T02:50:36.737Z,74.84
2018-12-14T02:53:09.219Z,74.24
2018-12-14T02:55:40.994Z,74.23
2018-12-14T02:58:13.166Z,73.21
2018-12-14T03:00:45.036Z,72.68
2018-12-14T03:03:16.692Z,73.20
2018-12-14T03:05:48.360Z,72.40
2018-12-14T03:08:20.232Z,72.89
2018-12-14T03:10:51.963Z,72.10
2018-12-14T03:13:23.912Z,72.17
2018-12-14T03:15:55.618Z,72.60
2018-12-14T03:18:28.757Z,73.31
2018-12-14T03:21:00.769Z,73.38
2018-12-14T03:23:33.438Z,73.69
2018-12-14T03:26:05.060Z,73.88
2018-12-14T03:28:36.528Z,73.60
2018-12-14T03:31:08.025Z,73.55
2018-12-14T03:33:40.211Z,74.26
2018-12-14T03:36:11.757Z,73.99
2018-12-14T03:38:43.466Z,74.33
2018-12-14T03:41:14.919Z,74.16
2018-12-14T03:43:46.526Z,74.24
2018-12-14T03:46:17.930Z,74.27
2018-12-14T03:48:49.669Z,74.44
2018-12-14T03:51:25.661Z,74.88
2018-12-14T03:53:57.257Z,74.57
2018-12-14T03:56:28.667Z,74.87
2018-12-14T03:59:00.306Z,74.29
2018-12-14T04:01:31.765Z,74.59
2018-12-14T04:04:03.448Z,75.49
2018-12-14T04:06:35.589Z,75.34
2018-12-14T04:09:10.450Z,75.04
2018-12-14T04:11:42.274Z,74.97
2018-12-14T04:14:13.818Z,75.58
2018-12-14T04:16:45.291Z,75.30
2018-12-14T04:19:16.864Z,75.44
2018-12-14T04:21:49.498Z,76.29
2018-12-14T04:24:21.076Z,75.71
2018-12-14T04:26:52.812Z,75.91
2018-12-14T04:29:24.517Z,76.42
2018-12-14T04:31:56.946Z,76.48
2018-12-14T04:34:28.625Z,76.31
2018-12-14T04:37:00.532Z,75.31
2018-12-14T04:39:32.650Z,75.76
2018-12-14T04:42:04.198Z,75.62
2018-12-14T04:44:36.186Z,76.13
2018-12-14T04:47:08.372Z,76.21
2018-12-14T04:49:41.561Z,76.64
2018-12-14T04:52:14.158Z,76.73
2018-12-14T04:54:46.081Z,76.40
2018-12-14T04:57:17.606Z,76.95
2018-12-14T04:59:50.284Z,77.59
2018-12-14T05:02:22.735Z,76.14
2018-12-14T05:04:57.043Z,76.57
2018-12-14T05:07:28.599Z,75.90
2018-12-14T05:10:02.569Z,75.76
2018-12-14T05:12:34.966Z,76.30
2018-12-14T05:15:07.270Z,75.84
2018-12-14T05:17:42.011Z,75.37
2018-12-14T05:20:16.620Z,76.00
2018-12-14T05:22:48.599Z,75.65
2018-12-14T05:25:24.893Z,75.27
2018-12-14T05:27:57.346Z,76.02
2018-12-14T05:30:29.398Z,74.68
2018-12-14T05:33:06.678Z,75.19
2018-12-14T05:35:42.110Z,74.90
2018-12-14T05:38:19.332Z,75.12
2018-12-14T05:40:50.959Z,74.82
2018-12-14T05:43:22.428Z,73.68
2018-12-14T05:45:54.129Z,73.57
2018-12-14T05:48:26.896Z,73.33
2018-12-14T05:51:12.674Z,73.08
2018-12-14T05:53:46.153Z,73.22
2018-12-14T05:56:17.867Z,73.11
2018-12-14T05:58:53.587Z,71.84
2018-12-14T06:01:36.442Z,71.56
2018-12-14T06:04:09.501Z,72.22
2018-12-14T06:06:41.679Z,71.52
2018-12-14T06:09:14.834Z,71.88
2018-12-14T06:11:46.689Z,72.38
2018-12-14T06:14:18.146Z,71.90
2018-12-14T06:16:49.696Z,72.03
2018-12-14T06:19:21.305Z,71.49
2018-12-14T06:21:53.809Z,70.01
2018-12-14T06:24:25.942Z,70.94
2018-12-14T06:26:57.715Z,70.12
2018-12-14T06:29:29.212Z,70.31
2018-12-14T06:32:04.827Z,70.40
2018-12-14T06:34:36.241Z,69.68
2018-12-14T06:37:09.856Z,67.65
2018-12-14T06:39:43.900Z,67.72
2018-12-14T06:42:16.505Z,68.37
2018-12-14T06:44:49.122Z,67.71
2018-12-14T06:47:26.037Z,68.35
2018-12-14T06:50:01.374Z,68.68
2018-12-14T06:52:34.436Z,68.62
2018-12-14T06:55:09.384Z,69.62
2018-12-14T06:57:41.293Z,68.60
2018-12-14T07:00:12.871Z,69.73
2018-12-14T07:02:45.164Z,68.91
2018-12-14T07:05:16.782Z,67.98
2018-12-14T07:07:48.556Z,68.09
2018-12-14T07:10:20.609Z,67.42
2018-12-14T07:12:52.679Z,67.25
2018-12-14T07:15:24.404Z,65.94
2018-12-14T07:17:56.471Z,65.14
2018-12-14T07:20:27.999Z,65.19
2018-12-14T07:22:59.736Z,66.53
2018-12-14T07:25:31.618Z,64.24
2018-12-14T07:28:03.227Z,64.40
2018-12-14T07:30:34.729Z,64.03
2018-12-14T07:33:06.517Z,64.28
2018-12-14T07:35:41.832Z,65.47
2018-12-14T07:38:12.617Z,63.24
2018-12-14T07:40:44.180Z,63.29
2018-12-14T07:43:16.033Z,60.74
2018-12-14T07:45:47.726Z,60.42
2018-12-14T07:48:19.408Z,61.59
2018-12-14T07:50:50.880Z,59.62
2018-12-14T07:53:22.407Z,62.78
2018-12-14T07:55:54.329Z,62.17
2018-12-14T07:58:25.931Z,62.85
2018-12-14T08:00:57.424Z,62.79
2018-12-14T08:03:29.088Z,61.18
2018-12-14T08:06:00.503Z,63.53
2018-12-14T08:08:31.866Z,61.41
2018-12-14T08:11:03.286Z,64.86
2018-12-14T08:13:35.109Z,64.02
2018-12-14T08:16:06.471Z,64.63
2018-12-14T08:18:38.139Z,64.41
2018-12-14T08:21:10.655Z,61.71
2018-12-14T08:23:44.710Z,63.40
2018-12-14T08:26:16.503Z,63.27
2018-12-14T08:28:48.159Z,58.48
2018-12-14T08:31:20.540Z,61.88
2018-12-14T08:33:54.041Z,60.32
2018-12-14T08:36:25.607Z,55.90
2018-12-14T08:38:57.232Z,56.58
2018-12-14T08:41:28.673Z,57.19
2018-12-14T08:44:00.321Z,60.90
2018-12-14T08:46:31.888Z,62.07
2018-12-14T08:49:04.589Z,59.37
2018-12-14T08:51:37.023Z,61.38
2018-12-14T08:54:13.936Z,59.60
2018-12-14T08:56:46.366Z,62.13
2018-12-14T08:59:18.243Z,61.43
2018-12-14T09:01:49.970Z,61.64
2018-12-14T09:04:23.464Z,61.53
2018-12-14T09:20:11.791Z,59.32
2018-12-14T09:22:44.370Z,59.11
2018-12-14T09:25:16.283Z,58.93
2018-12-14T09:27:48.510Z,59.83
2018-12-14T09:30:20.551Z,59.52
2018-12-14T09:32:52.933Z,58.68
2018-12-14T09:35:24.637Z,59.54
2018-12-14T09:37:56.472Z,58.28
2018-12-14T09:40:28.357Z,59.40
2018-12-14T09:43:00.131Z,57.12
2018-12-14T09:48:17.438Z,56.80
2018-12-14T09:50:49.298Z,57.85
2018-12-14T09:53:21.058Z,57.20
2018-12-14T09:55:52.798Z,58.29
2018-12-14T09:58:25.070Z,58.43
2018-12-14T10:00:59.113Z,57.22
2018-12-14T10:03:31.716Z,55.91
2018-12-14T10:06:05.445Z,56.27
2018-12-14T10:08:37.158Z,57.85
2018-12-14T10:11:09.795Z,59.61
2018-12-14T10:13:42.250Z,59.72
2018-12-14T10:16:15.160Z,57.96
2018-12-14T10:18:46.968Z,58.45
2018-12-14T10:21:18.678Z,59.48
2018-12-14T10:23:53.833Z,59.84
2018-12-14T10:26:26.398Z,59.67
2018-12-14T10:28:58.800Z,59.84
2018-12-14T10:31:31.618Z,60.46
2018-12-14T10:34:04.997Z,60.67
2018-12-14T10:36:42.840Z,59.49
2018-12-14T10:39:15.590Z,60.49
2018-12-14T10:41:47.119Z,59.83
2018-12-14T10:44:19.481Z,60.73
2018-12-14T10:46:50.934Z,59.60
2018-12-14T10:49:22.528Z,59.90
2018-12-14T10:51:57.886Z,61.12
2018-12-14T10:54:29.634Z,60.24
2018-12-14T10:57:01.685Z,59.84
2018-12-14T10:59:34.585Z,60.68
2018-12-14T11:02:16.874Z,60.26
2018-12-14T11:04:53.254Z,60.38
2018-12-14T11:07:24.880Z,59.68
2018-12-14T11:09:56.227Z,60.15
2018-12-14T11:12:27.792Z,60.05
2018-12-14T11:15:00.213Z,60.24
2018-12-14T11:17:34.806Z,60.80
2018-12-14T11:20:06.681Z,61.75
2018-12-14T11:22:38.279Z,61.96
2018-12-14T11:25:10.435Z,62.95
2018-12-14T11:27:49.097Z,63.32
2018-12-14T11:30:25.256Z,62.93
2018-12-14T11:32:57.978Z,63.11
2018-12-14T11:35:32.744Z,63.17
2018-12-14T11:38:08.748Z,62.80
2018-12-14T11:40:52.481Z,63.00
2018-12-14T11:43:35.288Z,62.83
2018-12-14T11:46:12.030Z,62.81
2018-12-14T11:48:47.234Z,62.69
2018-12-14T11:51:28.141Z,63.71
2018-12-14T11:54:02.071Z,63.23
2018-12-14T11:56:40.127Z,63.51
2018-12-14T11:59:11.956Z,63.08
2018-12-14T12:01:44.499Z,63.64
2018-12-14T12:04:16.596Z,63.30
2018-12-14T12:06:48.118Z,63.26
2018-12-14T12:09:21.404Z,63.91
2018-12-14T12:11:54.241Z,63.53
2018-12-14T12:14:27.048Z,63.88
2018-12-14T12:16:59.241Z,63.64
2018-12-14T12:19:31.264Z,63.59
2018-12-14T12:22:03.185Z,63.95
2018-12-14T12:24:35.851Z,63.18
2018-12-14T12:27:07.824Z,63.68
2018-12-14T12:29:39.731Z,63.80
2018-12-14T12:32:12.087Z,64.10
2018-12-14T12:34:44.001Z,63.29
2018-12-14T12:37:15.528Z,63.21
2018-12-14T12:39:47.249Z,63.65
2018-12-14T12:42:18.772Z,63.81
2018-12-14T12:44:50.915Z,63.85
2018-12-14T12:47:22.664Z,63.79
2018-12-14T12:49:54.236Z,64.12
2018-12-14T12:52:26.424Z,64.25
2018-12-14T12:54:58.589Z,63.89
2018-12-14T12:57:31.085Z,63.48
2018-12-14T13:00:03.362Z,63.39
2018-12-14T13:02:35.614Z,63.63
2018-12-14T13:05:07.595Z,63.49
2018-12-14T13:07:39.670Z,63.62
2018-12-14T13:10:11.525Z,63.19
2018-12-14T13:12:43.481Z,63.90
2018-12-14T13:15:15.210Z,63.45
2018-12-14T13:17:47.074Z,63.03
2018-12-14T13:20:18.670Z,62.61
2018-12-14T13:22:50.105Z,63.32
2018-12-14T13:25:21.639Z,63.12
2018-12-14T13:27:53.115Z,62.71
2018-12-14T13:30:24.756Z,63.05
2018-12-14T13:32:57.006Z,62.58
2018-12-14T13:35:31.587Z,62.14
2018-12-14T13:38:03.143Z,60.93
2018-12-14T13:40:37.228Z,61.65
2018-12-14T13:43:09.823Z,61.65
2018-12-14T13:45:41.481Z,61.36
2018-12-14T13:48:13.044Z,61.77
2018-12-14T13:50:44.608Z,61.60
2018-12-14T13:53:16.057Z,61.81
2018-12-14T13:55:47.598Z,61.79
2018-12-14T13:58:27.623Z,62.58
2018-12-14T14:00:59.340Z,62.55
2018-12-14T14:03:33.443Z,62.92
2018-12-14T14:06:04.994Z,63.34
2018-12-14T14:08:39.730Z,62.44
2018-12-14T14:11:20.133Z,63.23
2018-12-14T14:13:51.712Z,63.20
2018-12-14T14:16:23.275Z,63.53
2018-12-14T14:18:54.906Z,62.91
2018-12-14T14:21:30.207Z,63.38
2018-12-14T14:24:01.738Z,63.45
2018-12-14T14:26:33.415Z,63.10
2018-12-14T14:29:05.924Z,62.92
2018-12-14T14:31:38.641Z,63.22
2018-12-14T14:34:14.316Z,63.51
2018-12-14T14:36:49.076Z,63.47
2018-12-14T14:39:23.829Z,63.30
2018-12-14T14:41:55.499Z,63.26
2018-12-14T14:44:30.426Z,63.78
2018-12-14T14:47:02.183Z,64.16
2018-12-14T14:49:33.844Z,64.02
2018-12-14T14:52:05.621Z,64.06
2018-12-14T14:54:39.879Z,63.51
2018-12-14T14:57:11.487Z,64.21
2018-12-14T14:59:42.967Z,63.55
2018-12-14T15:02:14.598Z,62.71
2018-12-14T15:04:46.530Z,63.42
2018-12-14T15:07:18.308Z,64.86
2018-12-14T15:09:49.874Z,63.11
2018-12-14T15:12:21.505Z,62.93
2018-12-14T15:14:55.071Z,62.99
2018-12-14T15:17:27.719Z,62.54
2018-12-14T15:19:59.359Z,62.98
2018-12-14T15:22:32.064Z,62.97
2018-12-14T15:25:03.523Z,62.75
2018-12-14T15:27:36.120Z,62.54
2018-12-14T15:30:08.656Z,63.12
2018-12-14T15:32:41.370Z,62.86
2018-12-14T15:35:14.730Z,63.23
2018-12-14T15:37:58.280Z,63.79
2018-12-14T15:40:37.102Z,63.98
2018-12-14T15:43:08.812Z,63.91
2018-12-14T15:45:40.488Z,64.17
2018-12-14T15:48:12.168Z,64.24
2018-12-14T15:50:44.897Z,63.90
2018-12-14T15:53:20.215Z,63.91
2018-12-14T15:55:52.121Z,63.77
2018-12-14T15:58:29.957Z,63.58
2018-12-14T16:01:02.564Z,63.81
2018-12-14T16:03:43.652Z,63.96
2018-12-14T16:06:16.078Z,64.12
2018-12-14T16:08:52.264Z,64.12
2018-12-14T16:11:25.120Z,64.03
2018-12-14T16:14:02.758Z,64.43
2018-12-14T16:16:36.015Z,63.99
2018-12-14T16:19:08.929Z,64.25
2018-12-14T16:21:43.863Z,64.21
2018-12-14T16:24:15.540Z,64.77
2018-12-14T16:26:47.281Z,64.61
2018-12-14T16:29:31.260Z,64.57
2018-12-14T16:32:04.068Z,64.51
2018-12-14T16:34:37.168Z,64.39
2018-12-14T16:37:09.523Z,64.04
2018-12-14T16:39:43.044Z,64.46
2018-12-14T16:42:14.543Z,64.56
2018-12-14T16:44:46.263Z,64.75
2018-12-14T16:47:17.650Z,64.42
2018-12-14T16:49:49.352Z,64.37
2018-12-14T16:55:00.459Z,64.17
2018-12-14T16:57:31.757Z,63.40
2018-12-14T17:00:07.111Z,63.33
2018-12-14T17:02:41.858Z,63.32
2018-12-14T17:05:16.195Z,63.38
2018-12-14T17:07:48.543Z,63.33
2018-12-14T17:10:23.497Z,63.74
2018-12-14T17:12:55.141Z,64.15
2018-12-14T17:15:33.427Z,64.06
2018-12-14T17:18:05.342Z,64.09
2018-12-14T17:20:37.117Z,63.88
2018-12-14T17:23:13.625Z,63.58
2018-12-14T17:25:45.327Z,63.36
2018-12-14T17:28:17.048Z,64.04
2018-12-14T17:30:49.222Z,63.73
2018-12-14T17:33:35.915Z,63.61
2018-12-14T17:36:18.771Z,63.09
2018-12-14T17:38:55.820Z,63.46
2018-12-14T17:41:38.710Z,62.96
2018-12-14T17:44:15.263Z,62.78
2018-12-14T17:46:50.444Z,62.71
2018-12-14T17:49:25.964Z,63.71
2018-12-14T17:51:58.677Z,62.76
2018-12-14T17:54:33.468Z,62.73
2018-12-14T17:57:07.411Z,63.40
2018-12-14T17:59:40.901Z,63.54
2018-12-14T18:02:13.632Z,63.26
2018-12-14T18:04:51.008Z,63.46
2018-12-14T18:07:22.618Z,63.07
2018-12-14T18:09:59.345Z,63.28
2018-12-14T18:12:31.150Z,62.56
2018-12-14T18:15:02.619Z,62.74
2018-12-14T18:17:34.469Z,63.27
2018-12-14T18:20:10.584Z,62.71
2018-12-14T18:22:47.871Z,62.88
2018-12-14T18:25:20.786Z,63.03
2018-12-14T18:27:53.503Z,62.89
2018-12-14T18:30:25.114Z,63.34
2018-12-14T18:33:00.437Z,62.57
2018-12-14T18:35:36.129Z,62.69
2018-12-14T18:38:11.103Z,62.73
2018-12-14T18:40:43.025Z,63.42
2018-12-14T18:43:14.741Z,63.74
2018-12-14T18:45:53.400Z,62.89
2018-12-14T18:48:29.605Z,62.81
2018-12-14T18:51:04.394Z,63.22
2018-12-14T18:53:35.970Z,63.04
2018-12-14T18:56:10.703Z,62.77
2018-12-14T18:58:47.005Z,63.37
2018-12-14T19:01:23.703Z,63.35
2018-12-14T19:04:02.484Z,62.48
2018-12-14T19:06:35.083Z,62.78
2018-12-14T19:09:07.540Z,62.87
2018-12-14T19:11:41.946Z,63.03
2018-12-14T19:14:13.672Z,62.96
2018-12-14T19:16:52.133Z,63.28
2018-12-14T19:19:23.695Z,62.86
2018-12-14T19:22:02.203Z,63.55
2018-12-14T19:24:35.085Z,63.96
2018-12-14T19:27:08.690Z,63.60
2018-12-14T19:29:43.815Z,63.86
2018-12-14T19:32:15.354Z,63.50
2018-12-14T19:34:47.423Z,63.41
2018-12-14T19:37:24.200Z,63.88
2018-12-14T19:39:56.145Z,63.98
2018-12-14T19:42:35.557Z,64.17
2018-12-14T19:45:14.405Z,64.44
2018-12-14T19:47:46.211Z,64.37
2018-12-14T19:50:17.780Z,64.73
2018-12-14T19:52:55.296Z,64.92
2018-12-14T19:55:30.544Z,64.73
2018-12-14T19:58:04.091Z,65.02
2018-12-14T20:00:38.846Z,64.72
2018-12-14T20:03:10.423Z,65.59
2018-12-14T20:05:45.313Z,65.57
2018-12-14T20:08:17.865Z,65.64
2018-12-14T20:10:49.592Z,65.77
2018-12-14T20:13:26.832Z,65.39
2018-12-14T20:15:58.435Z,65.85
2018-12-14T20:18:35.292Z,65.58
2018-12-14T20:21:22.527Z,66.02
2018-12-14T20:23:57.517Z,65.77
2018-12-14T20:26:31.215Z,65.92
2018-12-14T20:29:03.744Z,65.97
2018-12-14T20:31:37.413Z,65.79
2018-12-14T20:34:11.912Z,66.20
2018-12-14T20:36:46.736Z,65.90
2018-12-14T20:39:18.644Z,66.15
2018-12-14T20:41:50.385Z,65.74
2018-12-14T20:44:24.647Z,65.57
2018-12-14T20:46:56.296Z,65.94
2018-12-14T20:49:29.682Z,65.90
2018-12-14T20:52:01.671Z,66.00
2018-12-14T20:54:33.308Z,66.38
2018-12-14T20:57:07.511Z,66.66
2018-12-14T20:59:39.154Z,66.28
2018-12-14T21:02:14.318Z,66.69
2018-12-14T21:04:48.000Z,65.89
2018-12-14T21:07:20.787Z,65.78
2018-12-14T21:09:57.958Z,66.52
2018-12-14T21:12:31.487Z,66.37
2018-12-14T21:15:04.524Z,66.67
2018-12-14T21:17:39.423Z,67.04
2018-12-14T21:20:10.958Z,66.63
2018-12-14T21:22:47.548Z,66.74
2018-12-14T21:25:24.406Z,67.45
2018-12-14T21:27:56.131Z,67.19
2018-12-14T21:30:33.874Z,67.54
2018-12-14T21:33:08.801Z,67.47
2018-12-14T21:35:41.767Z,66.83
2018-12-14T21:38:17.274Z,67.66
2018-12-14T21:40:53.919Z,67.43
2018-12-14T21:43:26.527Z,67.70
2018-12-14T21:45:58.627Z,67.71
2018-12-14T21:48:30.320Z,67.40
2018-12-14T21:51:01.978Z,67.85
2018-12-14T21:53:37.221Z,67.79
2018-12-14T21:56:13.413Z,68.08
2018-12-14T21:58:45.101Z,67.85
2018-12-14T22:01:20.235Z,67.73
2018-12-14T22:03:51.821Z,68.49
2018-12-14T22:06:28.442Z,68.00
2018-12-14T22:09:00.055Z,68.46
2018-12-14T22:11:37.042Z,68.26
2018-12-14T22:14:09.598Z,68.63
2018-12-14T22:16:45.516Z,68.28
2018-12-14T22:19:17.289Z,69.07
2018-12-14T22:21:48.847Z,68.76
2018-12-14T22:24:21.635Z,68.98
2018-12-14T22:27:02.923Z,68.63
2018-12-14T22:29:40.747Z,68.76
2018-12-14T22:32:12.268Z,69.30
2018-12-14T22:34:47.987Z,68.95
2018-12-14T22:37:23.388Z,69.30
2018-12-14T22:40:03.045Z,69.18
2018-12-14T22:42:43.355Z,69.32
2018-12-14T22:45:27.728Z,69.19
2018-12-14T22:48:15.692Z,69.26
2018-12-14T22:50:57.154Z,69.25
2018-12-14T22:53:45.989Z,69.86
2018-12-14T22:56:23.361Z,69.81
2018-12-14T22:58:55.848Z,69.84
2018-12-14T23:01:32.008Z,70.34
2018-12-14T23:04:10.438Z,69.33
2018-12-14T23:06:42.344Z,69.34
2018-12-14T23:09:18.754Z,69.58
2018-12-14T23:11:51.379Z,69.20
2018-12-14T23:14:26.604Z,69.85
2018-12-14T23:16:58.412Z,69.74
2018-12-14T23:19:30.416Z,69.65
2018-12-14T23:22:02.154Z,70.47
2018-12-14T23:24:33.715Z,69.50
2018-12-14T23:27:09.199Z,70.28
2018-12-14T23:29:45.465Z,70.52
2018-12-14T23:32:20.668Z,69.84
2018-12-14T23:34:52.369Z,70.57
2018-12-14T23:37:30.534Z,70.61
2018-12-14T23:40:01.998Z,70.14
2018-12-14T23:42:33.681Z,70.58
2018-12-14T23:45:16.216Z,70.30
2018-12-14T23:47:47.795Z,70.98
2018-12-14T23:50:20.861Z,70.82
2018-12-14T23:52:59.876Z,70.54
2018-12-14T23:55:31.246Z,70.96
2018-12-14T23:58:07.474Z,71.19
